Time;durP1;ratioP1;P1;durP2;ratioP2;P2;SDS_P1;SDS_P2;PMS_P1;PMS_P2;Temp;Humidity;BMP_temperature;BMP_pressure;BME280_temperature;BME280_humidity;BME280_pressure;Samples;Min_cycle;Max_cycle;Signal;HPM_P1;HPM_P2
2021/12/17 00:01:10;;;;;;;;;;;1.30;99.90;;;;;;5018029;28;20416;-79
2021/12/17 00:03:44;;;;;;;;;;;1.30;99.90;;;;;;5017902;28;19940;-79
2021/12/17 00:08:38;;;;;;;;;;;1.30;99.90;;;;;;5017557;28;20044;-79
2021/12/17 00:11:05;;;;;;;;;;;1.40;99.90;;;;;;5017889;28;19961;-79
2021/12/17 00:13:31;;;;;;;;;;;1.40;99.90;;;;;;5017637;28;20011;-79
2021/12/17 00:15:56;;;;;;;;;;;1.40;99.90;;;;;;5017869;28;20392;-79
2021/12/17 00:18:30;;;;;;;;;;;1.30;99.90;;;;;;4999982;28;19913;-79
2021/12/17 00:48:24;;;;;;;;;;;1.00;99.90;;;;;;5021344;28;19932;-78
2021/12/17 00:51:26;;;;;;;;;;;0.90;99.90;;;;;;5021279;28;20281;-79
2021/12/17 00:53:36;;;;;;;;;;;0.90;99.90;;;;;;5020399;28;19967;-79
2021/12/17 00:56:01;;;;;;;;;;;0.90;99.90;;;;;;5021119;28;19996;-79
2021/12/17 00:58:27;;;;;;;;;;;0.80;99.90;;;;;;5002562;28;19909;-79
2021/12/17 01:00:52;;;;;;;;;;;0.80;99.90;;;;;;5021020;28;19910;-79
2021/12/17 01:03:18;;;;;;;;;;;0.90;99.90;;;;;;5020997;28;19973;-79
2021/12/17 01:05:44;;;;;;;;;;;0.80;99.90;;;;;;5021091;28;19964;-78
2021/12/17 01:08:10;;;;;;;;;;;0.80;99.90;;;;;;5003132;28;19909;-79
2021/12/17 01:10:44;;;;;;;;;;;0.80;99.90;;;;;;5019403;28;19909;-79
2021/12/17 01:13:10;;;;;;;;;;;0.80;99.90;;;;;;5019461;28;19913;-79
2021/12/17 01:15:37;;;;;;;;;;;0.90;99.90;;;;;;5019427;28;19917;-79
2021/12/17 01:18:08;;;;;;;;;;;0.90;99.90;;;;;;5019523;28;20028;-79
2021/12/17 01:25:47;;;;;;;;;;;0.90;99.90;;;;;;5020858;28;20051;-79
2021/12/17 01:36:21;;;;;;;;;;;0.70;99.90;;;;;;5020492;28;20020;-79
2021/12/17 01:43:59;;;;;;;;;;;0.60;99.90;;;;;;5019483;28;20016;-79
2021/12/17 01:46:26;;;;;;;;;;;0.50;99.90;;;;;;5020066;28;19953;-78
2021/12/17 01:55:48;;;;;;;;;;;0.50;99.90;;;;;;5020152;28;19952;-79
2021/12/17 01:59:53;;;;;;;;;;;0.50;99.90;;;;;;5020325;28;20387;-79
2021/12/17 02:02:18;;;;;;;;;;;0.50;99.90;;;;;;5002164;28;19909;-79
2021/12/17 02:04:44;;;;;;;;;;;0.50;99.90;;;;;;5018734;28;19940;-79
2021/12/17 02:07:10;;;;;;;;;;;0.60;99.90;;;;;;5019800;28;19910;-79
2021/12/17 02:31:38;;;;;;;;;;;0.90;99.90;;;;;;5019503;28;19917;-79
2021/12/17 02:34:15;;;;;;;;;;;0.80;99.90;;;;;;5019389;28;19913;-79
2021/12/17 02:36:43;;;;;;;;;;;0.80;99.90;;;;;;5001472;28;19949;-79
2021/12/17 02:47:12;;;;;;;;;;;0.50;99.90;;;;;;5019358;28;19963;-78
2021/12/17 02:49:38;;;;;;;;;;;0.50;99.90;;;;;;5018846;28;19976;-78
2021/12/17 02:52:04;;;;;;;;;;;0.50;99.90;;;;;;5001271;28;20413;-78
2021/12/17 02:54:31;;;;;;;;;;;0.50;99.90;;;;;;5018632;28;19988;-78
2021/12/17 02:56:56;;;;;;;;;;;0.50;99.90;;;;;;5001192;28;19909;-81
2021/12/17 02:59:22;;;;;;;;;;;0.60;99.90;;;;;;5001130;28;20369;-81
2021/12/17 03:01:48;;;;;;;;;;;0.60;99.90;;;;;;5020404;28;20293;-81
2021/12/17 03:04:15;;;;;;;;;;;0.60;99.90;;;;;;5000246;28;20378;-81
2021/12/17 03:06:41;;;;;;;;;;;0.70;99.90;;;;;;4999156;28;19910;-79
2021/12/17 03:09:07;;;;;;;;;;;0.70;99.90;;;;;;4999492;28;19974;-79
2021/12/17 03:11:33;;;;;;;;;;;0.70;99.90;;;;;;5017372;28;19944;-79
2021/12/17 03:13:59;;;;;;;;;;;0.70;99.90;;;;;;5017696;28;19914;-79
2021/12/17 03:16:37;;;;;;;;;;;0.70;99.90;;;;;;5018591;28;19909;-79
2021/12/17 03:24:18;;;;;;;;;;;0.70;99.90;;;;;;5018261;28;19920;-79
2021/12/17 03:26:44;;;;;;;;;;;0.70;99.90;;;;;;5018059;28;19910;-80
2021/12/17 03:29:10;;;;;;;;;;;0.60;99.90;;;;;;5000624;28;19914;-79
2021/12/17 03:31:36;;;;;;;;;;;0.60;99.90;;;;;;5018244;28;19921;-79
2021/12/17 03:34:18;;;;;;;;;;;0.60;99.90;;;;;;5000700;28;19909;-79
2021/12/17 03:36:44;;;;;;;;;;;0.50;99.90;;;;;;5018103;28;19960;-79
2021/12/17 03:39:10;;;;;;;;;;;0.50;99.90;;;;;;5000377;28;20269;-79
2021/12/17 03:41:38;;;;;;;;;;;0.40;99.90;;;;;;5016683;28;20350;-79
2021/12/17 03:44:05;;;;;;;;;;;0.40;99.90;;;;;;5016835;28;19917;-79
2021/12/17 03:46:31;;;;;;;;;;;0.30;99.90;;;;;;5016905;28;19909;-79
2021/12/17 03:48:56;;;;;;;;;;;0.30;99.90;;;;;;5018205;28;19917;-79
2021/12/17 03:51:22;;;;;;;;;;;0.30;99.90;;;;;;5018017;28;19914;-79
2021/12/17 03:53:53;;;;;;;;;;;0.20;99.90;;;;;;5017845;28;19909;-79
2021/12/17 03:56:19;;;;;;;;;;;0.10;99.90;;;;;;5018049;28;20361;-79
2021/12/17 03:58:45;;;;;;;;;;;0.10;99.90;;;;;;5017903;28;19910;-79
2021/12/17 04:01:11;;;;;;;;;;;0.10;99.90;;;;;;4999570;28;20440;-80
2021/12/17 04:03:37;;;;;;;;;;;0.10;99.90;;;;;;5018020;28;19913;-79
2021/12/17 04:06:03;;;;;;;;;;;0.10;99.90;;;;;;5018047;28;20483;-79
2021/12/17 04:08:29;;;;;;;;;;;0.10;99.90;;;;;;5017542;28;20027;-79
2021/12/17 04:11:02;;;;;;;;;;;0.30;99.90;;;;;;5017728;28;19909;-82
2021/12/17 04:13:32;;;;;;;;;;;0.40;99.90;;;;;;5017746;28;19959;-81
2021/12/17 04:16:06;;;;;;;;;;;0.50;99.90;;;;;;5021905;28;19916;-81
2021/12/17 04:18:33;;;;;;;;;;;0.50;99.90;;;;;;5021821;28;20272;-78
2021/12/17 04:21:03;;;;;;;;;;;0.60;99.90;;;;;;5021884;28;19945;-78
2021/12/17 04:23:31;;;;;;;;;;;0.60;99.90;;;;;;5021570;28;19957;-79
2021/12/17 04:25:57;;;;;;;;;;;0.60;99.90;;;;;;5021923;28;19917;-79
2021/12/17 04:28:23;;;;;;;;;;;0.60;99.90;;;;;;5021344;28;19921;-79
2021/12/17 04:30:48;;;;;;;;;;;0.50;99.90;;;;;;5021721;28;19909;-79
2021/12/17 04:33:14;;;;;;;;;;;0.50;99.90;;;;;;5003848;28;19917;-80
2021/12/17 04:35:40;;;;;;;;;;;0.50;99.90;;;;;;5021482;28;19909;-79
2021/12/17 04:38:08;;;;;;;;;;;0.40;99.90;;;;;;5021255;28;19941;-79
2021/12/17 04:40:35;;;;;;;;;;;0.40;99.90;;;;;;5021524;28;19909;-79
2021/12/17 04:43:30;;;;;;;;;;;0.50;99.90;;;;;;5021111;28;19917;-79
2021/12/17 04:46:16;;;;;;;;;;;0.60;99.90;;;;;;5003485;28;20364;-80
2021/12/17 04:59:39;;;;;;;;;;;0.60;99.90;;;;;;5021319;28;19916;-79
2021/12/17 05:02:04;;;;;;;;;;;0.60;99.90;;;;;;5003110;28;20007;-79
2021/12/17 05:04:30;;;;;;;;;;;0.80;99.90;;;;;;5021001;28;19914;-79
2021/12/17 05:06:55;;;;;;;;;;;0.80;99.90;;;;;;5020804;28;20000;-79
2021/12/17 05:09:39;;;;;;;;;;;0.70;99.90;;;;;;5020938;28;20390;-79
2021/12/17 05:20:25;;;;;;;;;;;1.30;99.90;;;;;;5020895;28;19968;-83
2021/12/17 05:22:56;;;;;;;;;;;1.70;99.90;;;;;;5020520;28;19937;-81
2021/12/17 05:25:22;;;;;;;;;;;2.20;99.90;;;;;;5020029;28;20004;-80
2021/12/17 05:27:47;;;;;;;;;;;2.40;99.90;;;;;;5020386;28;20408;-83
2021/12/17 05:30:13;;;;;;;;;;;2.60;99.90;;;;;;5019451;28;19957;-81
2021/12/17 05:32:39;;;;;;;;;;;2.80;99.90;;;;;;5017923;28;20266;-82
2021/12/17 05:35:04;;;;;;;;;;;3.00;99.90;;;;;;5003853;28;19909;-81
2021/12/17 05:37:30;;;;;;;;;;;3.10;99.90;;;;;;5032727;28;19921;-81
2021/12/17 05:39:56;;;;;;;;;;;3.20;99.90;;;;;;5022630;28;19909;-79
2021/12/17 05:42:22;;;;;;;;;;;3.30;99.90;;;;;;5040421;28;20280;-80
2021/12/17 05:44:52;;;;;;;;;;;3.40;99.90;;;;;;5039953;28;19991;-83
2021/12/17 05:47:18;;;;;;;;;;;3.40;99.90;;;;;;5040076;28;19913;-82
2021/12/17 05:49:43;;;;;;;;;;;3.50;99.90;;;;;;5039777;28;20365;-84
2021/12/17 05:52:09;;;;;;;;;;;3.50;99.90;;;;;;5022186;28;19935;-81
2021/12/17 05:54:34;;;;;;;;;;;3.50;99.90;;;;;;5022018;28;19909;-83
2021/12/17 05:57:00;;;;;;;;;;;3.50;99.90;;;;;;5039775;28;19909;-79
2021/12/17 05:59:33;;;;;;;;;;;3.50;99.90;;;;;;5038397;28;19972;-83
2021/12/17 06:02:00;;;;;;;;;;;3.40;99.90;;;;;;5039948;28;20307;-80
2021/12/17 06:04:26;;;;;;;;;;;3.50;99.90;;;;;;5033259;28;19917;-81
2021/12/17 06:06:51;;;;;;;;;;;3.50;99.90;;;;;;5019995;28;19914;-80
2021/12/17 06:09:17;;;;;;;;;;;3.50;99.90;;;;;;5001988;28;20308;-81
2021/12/17 06:11:43;;;;;;;;;;;3.50;99.90;;;;;;5019743;28;19910;-80
2021/12/17 06:14:08;;;;;;;;;;;3.40;99.90;;;;;;5002126;28;19910;-81
2021/12/17 06:16:34;;;;;;;;;;;3.40;99.90;;;;;;5019735;28;19909;-80
2021/12/17 06:19:01;;;;;;;;;;;3.40;99.90;;;;;;5002030;28;19917;-80
2021/12/17 06:21:27;;;;;;;;;;;3.40;99.90;;;;;;5018290;28;19916;-81
2021/12/17 06:23:52;;;;;;;;;;;3.30;99.90;;;;;;5017846;28;19940;-80
2021/12/17 06:26:18;;;;;;;;;;;3.30;99.90;;;;;;5018221;28;19913;-82
2021/12/17 06:28:43;;;;;;;;;;;3.30;99.90;;;;;;5014347;28;19922;-80
2021/12/17 06:31:09;;;;;;;;;;;3.30;99.90;;;;;;5019515;28;19914;-81
2021/12/17 06:33:35;;;;;;;;;;;3.40;99.90;;;;;;5019427;28;19909;-81
2021/12/17 06:36:00;;;;;;;;;;;3.50;99.90;;;;;;5014817;28;20389;-81
2021/12/17 06:38:26;;;;;;;;;;;3.60;99.90;;;;;;4996893;28;19915;-81
2021/12/17 06:40:53;;;;;;;;;;;3.70;99.90;;;;;;4998126;28;20366;-81
2021/12/17 06:43:22;;;;;;;;;;;3.70;99.90;;;;;;4988338;28;19921;-82
2021/12/17 06:45:57;;;;;;;;;;;3.80;99.90;;;;;;5000868;28;19996;-81
2021/12/17 06:48:27;;;;;;;;;;;3.80;99.90;;;;;;4998330;28;20076;-81
2021/12/17 06:59:12;;;;;;;;;;;3.80;99.90;;;;;;5035569;28;19916;-80
2021/12/17 07:29:48;;;;;;;;;;;4.00;99.90;;;;;;5009211;28;20448;-77
2021/12/17 07:34:07;;;;;;;;;;;4.00;99.90;;;;;;4997324;28;20021;-77
2021/12/17 07:39:24;;;;;;;;;;;4.10;99.90;;;;;;5014210;28;20282;-77
2021/12/17 07:41:50;;;;;;;;;;;4.10;99.90;;;;;;5000566;28;19910;-77
2021/12/17 07:44:15;;;;;;;;;;;4.10;99.90;;;;;;5018178;28;19925;-77
2021/12/17 07:46:41;;;;;;;;;;;4.20;99.90;;;;;;5000725;28;19917;-77
2021/12/17 07:49:06;;;;;;;;;;;4.20;99.90;;;;;;5007751;28;19910;-77
2021/12/17 07:51:32;;;;;;;;;;;4.20;99.90;;;;;;5000015;28;19920;-77
2021/12/17 07:53:57;;;;;;;;;;;4.30;99.90;;;;;;5016995;28;20301;-77
2021/12/17 07:56:25;;;;;;;;;;;4.30;99.90;;;;;;5000135;28;19910;-77
2021/12/17 07:58:50;;;;;;;;;;;4.30;99.90;;;;;;5001843;28;19909;-77
2021/12/17 08:01:16;;;;;;;;;;;4.30;99.90;;;;;;5012518;28;19960;-77
2021/12/17 08:03:42;;;;;;;;;;;4.30;99.90;;;;;;4997725;28;19941;-77
2021/12/17 08:06:08;;;;;;;;;;;4.30;99.90;;;;;;4999611;28;20263;-77
2021/12/17 08:08:33;;;;;;;;;;;4.30;99.90;;;;;;5017202;28;19916;-77
2021/12/17 08:10:59;;;;;;;;;;;4.30;99.90;;;;;;4996856;28;19917;-76
2021/12/17 08:13:29;;;;;;;;;;;4.30;99.90;;;;;;5017351;28;20052;-78
2021/12/17 08:18:34;;;;;;;;;;;4.30;99.90;;;;;;5017660;28;19917;-79
2021/12/17 08:31:41;;;;;;;;;;;4.40;99.90;;;;;;5001462;28;19967;-77
2021/12/17 08:34:07;;;;;;;;;;;4.40;99.90;;;;;;4999989;28;19949;-77
2021/12/17 08:36:32;;;;;;;;;;;4.50;99.90;;;;;;5015953;28;19914;-77
2021/12/17 08:38:58;;;;;;;;;;;4.50;99.90;;;;;;5019962;28;19917;-77
2021/12/17 08:41:26;;;;;;;;;;;4.50;99.90;;;;;;5036935;28;19910;-77
2021/12/17 08:43:51;;;;;;;;;;;4.50;99.90;;;;;;5033676;28;19963;-77
2021/12/17 08:46:17;;;;;;;;;;;4.60;99.90;;;;;;5016431;28;19914;-76
2021/12/17 08:48:42;;;;;;;;;;;4.70;99.90;;;;;;4999267;28;19916;-77
2021/12/17 08:51:09;;;;;;;;;;;4.70;99.90;;;;;;5017384;28;20480;-76
2021/12/17 08:53:35;;;;;;;;;;;4.70;99.90;;;;;;4999438;28;19959;-77
2021/12/17 08:56:01;;;;;;;;;;;4.70;99.90;;;;;;4999290;28;19913;-77
2021/12/17 08:58:27;;;;;;;;;;;4.80;99.90;;;;;;5016053;28;19995;-77
2021/12/17 09:00:52;;;;;;;;;;;4.90;99.90;;;;;;5019185;28;19956;-77
2021/12/17 09:03:18;;;;;;;;;;;4.90;99.90;;;;;;5021336;28;20309;-78
2021/12/17 09:05:45;;;;;;;;;;;5.10;99.90;;;;;;5020950;28;19939;-77
2021/12/17 09:08:11;;;;;;;;;;;5.10;99.90;;;;;;5003197;28;20000;-77
2021/12/17 09:10:37;;;;;;;;;;;5.20;99.90;;;;;;5020872;28;19910;-77
2021/12/17 09:13:02;;;;;;;;;;;5.20;99.90;;;;;;5020932;28;19921;-77
2021/12/17 09:15:28;;;;;;;;;;;5.30;99.90;;;;;;5020872;28;19916;-77
2021/12/17 09:17:54;;;;;;;;;;;5.40;99.90;;;;;;5021266;28;19968;-78
2021/12/17 09:20:20;;;;;;;;;;;5.50;99.90;;;;;;5020894;28;20000;-77
2021/12/17 09:22:46;;;;;;;;;;;5.70;99.90;;;;;;5019902;28;19944;-77
2021/12/17 09:25:11;;;;;;;;;;;5.70;99.90;;;;;;5020638;28;20422;-77
2021/12/17 09:27:37;;;;;;;;;;;5.80;99.90;;;;;;5020596;28;19975;-77
2021/12/17 09:30:04;;;;;;;;;;;5.90;99.90;;;;;;5020700;28;19913;-77
2021/12/17 09:32:30;;;;;;;;;;;6.00;99.90;;;;;;5020697;28;19909;-77
2021/12/17 09:34:55;;;;;;;;;;;6.00;99.90;;;;;;5002581;28;19914;-77
2021/12/17 09:37:21;;;;;;;;;;;6.10;99.90;;;;;;5020586;28;19917;-78
2021/12/17 09:39:46;;;;;;;;;;;6.10;99.90;;;;;;5020228;28;19910;-77
2021/12/17 09:42:12;;;;;;;;;;;6.20;99.90;;;;;;5002670;28;19914;-77
2021/12/17 09:44:38;;;;;;;;;;;6.20;99.90;;;;;;5015795;28;19928;-78
2021/12/17 09:47:04;;;;;;;;;;;6.20;99.90;;;;;;5019682;28;19914;-78
2021/12/17 09:49:30;;;;;;;;;;;6.30;99.90;;;;;;5002564;28;19924;-77
2021/12/17 09:51:56;;;;;;;;;;;6.40;99.90;;;;;;5019599;28;20013;-77
2021/12/17 09:54:22;;;;;;;;;;;6.40;99.90;;;;;;5019244;28;19952;-77
2021/12/17 09:56:48;;;;;;;;;;;6.50;99.90;;;;;;5019848;28;19960;-77
2021/12/17 09:59:14;;;;;;;;;;;6.50;99.90;;;;;;5010759;28;19917;-77
2021/12/17 10:01:42;;;;;;;;;;;6.50;99.90;;;;;;5020215;28;19910;-77
2021/12/17 10:04:13;;;;;;;;;;;6.50;99.90;;;;;;5019780;28;19953;-77
2021/12/17 10:06:39;;;;;;;;;;;6.60;99.90;;;;;;5020058;28;19956;-77
2021/12/17 10:09:05;;;;;;;;;;;6.60;99.90;;;;;;5019650;28;19910;-77
2021/12/17 10:11:31;;;;;;;;;;;6.70;99.90;;;;;;5018750;28;20004;-77
2021/12/17 10:14:14;;;;;;;;;;;6.80;99.90;;;;;;5001372;28;19960;-78
2021/12/17 10:16:40;;;;;;;;;;;6.80;99.90;;;;;;5017951;28;19909;-77
2021/12/17 10:19:05;;;;;;;;;;;6.80;99.90;;;;;;5002144;28;19917;-77
2021/12/17 10:21:32;;;;;;;;;;;6.90;99.90;;;;;;5019413;28;19914;-78
2021/12/17 10:23:58;;;;;;;;;;;7.00;99.90;;;;;;5019743;28;19921;-78
2021/12/17 10:26:28;;;;;;;;;;;7.00;99.90;;;;;;5019245;28;20004;-78
2021/12/17 10:29:01;;;;;;;;;;;7.10;99.90;;;;;;5019253;28;20007;-77
2021/12/17 10:31:28;;;;;;;;;;;7.20;99.90;;;;;;5019298;28;19917;-77
2021/12/17 10:33:58;;;;;;;;;;;7.20;99.90;;;;;;5001763;28;19996;-77
2021/12/17 10:36:55;;;;;;;;;;;7.20;99.90;;;;;;5019069;28;19910;-77
2021/12/17 10:39:22;;;;;;;;;;;7.30;99.90;;;;;;4962636;28;19910;-77
2021/12/17 10:41:49;;;;;;;;;;;7.30;99.90;;;;;;5001753;28;19909;-78
2021/12/17 10:44:15;;;;;;;;;;;7.30;99.90;;;;;;5019159;28;19918;-77
2021/12/17 10:47:05;;;;;;;;;;;7.30;99.90;;;;;;5019156;28;20008;-78
2021/12/17 10:49:30;;;;;;;;;;;7.40;99.90;;;;;;5001331;28;19952;-78
2021/12/17 10:52:13;;;;;;;;;;;7.50;99.90;;;;;;5017687;28;19909;-78
2021/12/17 10:54:39;;;;;;;;;;;7.50;99.90;;;;;;5018935;28;19959;-78
2021/12/17 10:57:07;;;;;;;;;;;7.60;99.90;;;;;;5018843;28;19909;-78
2021/12/17 10:59:34;;;;;;;;;;;7.60;99.90;;;;;;5018075;28;19921;-78
2021/12/17 11:02:05;;;;;;;;;;;7.70;99.90;;;;;;5001181;28;19916;-77
2021/12/17 11:04:32;;;;;;;;;;;7.70;99.90;;;;;;5018710;28;19914;-78
2021/12/17 11:07:02;;;;;;;;;;;7.80;99.90;;;;;;5018802;28;19910;-77
2021/12/17 11:09:31;;;;;;;;;;;7.90;99.90;;;;;;5018806;28;19909;-77
2021/12/17 11:12:01;;;;;;;;;;;7.90;99.90;;;;;;5000784;28;19910;-77
2021/12/17 11:14:27;;;;;;;;;;;7.90;99.90;;;;;;5018554;28;19916;-77
2021/12/17 11:16:52;;;;;;;;;;;8.00;99.90;;;;;;5018553;28;19918;-76
2021/12/17 11:19:18;;;;;;;;;;;8.10;99.90;;;;;;5000986;28;19909;-76
2021/12/17 11:21:44;;;;;;;;;;;8.10;99.90;;;;;;5018316;28;19909;-76
2021/12/17 11:24:10;;;;;;;;;;;8.20;99.90;;;;;;5010431;28;20397;-76
2021/12/17 11:26:35;;;;;;;;;;;8.20;99.90;;;;;;5018272;28;19910;-76
2021/12/17 11:29:03;;;;;;;;;;;8.20;99.90;;;;;;5018266;28;19918;-76
2021/12/17 11:31:32;;;;;;;;;;;8.30;99.90;;;;;;5018244;28;20020;-77
2021/12/17 11:33:58;;;;;;;;;;;8.40;99.90;;;;;;5018327;28;19910;-77
2021/12/17 11:36:24;;;;;;;;;;;8.40;99.90;;;;;;5000098;28;19913;-77
2021/12/17 11:39:13;;;;;;;;;;;8.40;99.90;;;;;;5016804;28;19910;-77
2021/12/17 11:41:38;;;;;;;;;;;8.40;99.90;;;;;;5018043;28;19910;-76
2021/12/17 11:44:08;;;;;;;;;;;8.40;99.90;;;;;;5018197;28;20456;-76
2021/12/17 11:46:34;;;;;;;;;;;8.40;99.90;;;;;;5018192;28;19909;-79
2021/12/17 11:49:02;;;;;;;;;;;8.40;99.90;;;;;;5018095;28;20055;-76
2021/12/17 11:51:29;;;;;;;;;;;8.50;99.90;;;;;;5000480;28;19916;-76
2021/12/17 11:53:55;;;;;;;;;;;8.50;99.90;;;;;;4993446;28;20393;-78
2021/12/17 11:56:40;;;;;;;;;;;8.60;99.90;;;;;;5017949;28;19991;-78
2021/12/17 11:59:07;;;;;;;;;;;8.60;99.90;;;;;;5017853;28;19987;-77
2021/12/17 12:01:49;;;;;;;;;;;8.70;99.90;;;;;;5018086;28;20067;-77
2021/12/17 12:04:22;;;;;;;;;;;8.70;99.90;;;;;;5017744;28;19913;-77
2021/12/17 12:07:00;;;;;;;;;;;8.70;99.90;;;;;;5017847;28;19910;-76
2021/12/17 12:09:44;;;;;;;;;;;8.80;99.90;;;;;;5017891;28;19957;-76
2021/12/17 12:12:10;;;;;;;;;;;8.90;99.90;;;;;;5017563;28;20008;-76
2021/12/17 12:14:36;;;;;;;;;;;8.90;99.90;;;;;;5017752;28;20010;-76
2021/12/17 12:17:01;;;;;;;;;;;8.90;99.90;;;;;;5017679;28;19909;-76
2021/12/17 12:19:47;;;;;;;;;;;8.90;99.90;;;;;;5017835;28;20592;-77
2021/12/17 12:22:13;;;;;;;;;;;8.90;99.90;;;;;;5017333;28;19910;-76
2021/12/17 12:24:38;;;;;;;;;;;8.90;99.90;;;;;;5004252;28;19917;-77
2021/12/17 12:27:04;;;;;;;;;;;8.90;99.90;;;;;;4999409;28;20393;-77
2021/12/17 12:29:29;;;;;;;;;;;8.90;99.90;;;;;;5015884;28;19948;-76
2021/12/17 12:32:11;;;;;;;;;;;9.00;99.90;;;;;;4986754;28;19953;-77
2021/12/17 12:34:38;;;;;;;;;;;9.00;99.90;;;;;;5015410;28;19909;-77
2021/12/17 12:37:09;;;;;;;;;;;9.00;99.90;;;;;;5019510;28;20385;-78
2021/12/17 12:39:37;;;;;;;;;;;9.00;99.90;;;;;;5020985;28;20301;-78
2021/12/17 12:42:06;;;;;;;;;;;9.00;99.90;;;;;;5020629;28;19917;-78
2021/12/17 12:44:47;;;;;;;;;;;9.10;99.90;;;;;;5020828;28;19924;-76
2021/12/17 12:47:31;;;;;;;;;;;9.00;99.90;;;;;;5027766;28;19959;-77
2021/12/17 12:50:02;;;;;;;;;;;9.00;99.90;;;;;;5041184;28;19971;-77
2021/12/17 12:52:34;;;;;;;;;;;9.10;99.90;;;;;;5030697;28;19913;-78
2021/12/17 12:55:02;;;;;;;;;;;9.10;99.90;;;;;;5040993;28;19910;-77
2021/12/17 12:57:32;;;;;;;;;;;9.10;99.90;;;;;;5040670;28;19909;-77
2021/12/17 12:59:59;;;;;;;;;;;9.10;99.90;;;;;;5023134;28;20332;-77
2021/12/17 13:02:25;;;;;;;;;;;9.10;99.90;;;;;;5022627;28;19910;-78
2021/12/17 13:04:58;;;;;;;;;;;9.10;99.90;;;;;;5024305;28;19917;-78
2021/12/17 13:07:38;;;;;;;;;;;9.00;99.90;;;;;;5002553;28;20012;-78
2021/12/17 13:10:07;;;;;;;;;;;9.00;99.90;;;;;;5020304;28;20770;-77
2021/12/17 13:12:35;;;;;;;;;;;9.00;99.90;;;;;;5004184;28;19918;-77
2021/12/17 13:15:18;;;;;;;;;;;9.00;99.90;;;;;;5000374;28;19909;-77
2021/12/17 13:21:04;;;;;;;;;;;9.10;99.90;;;;;;5018737;28;19956;-76
2021/12/17 13:23:33;;;;;;;;;;;9.10;99.90;;;;;;5020034;28;19914;-77
2021/12/17 13:26:03;;;;;;;;;;;9.10;99.90;;;;;;5020371;28;19997;-77
2021/12/17 13:28:43;;;;;;;;;;;9.10;99.90;;;;;;4999712;28;19921;-77
2021/12/17 13:31:09;;;;;;;;;;;9.10;99.90;;;;;;5014690;28;19917;-77
2021/12/17 13:33:38;;;;;;;;;;;9.10;99.90;;;;;;5020609;28;19910;-77
2021/12/17 13:36:11;;;;;;;;;;;9.10;99.90;;;;;;5002673;28;19913;-77
2021/12/17 13:38:37;;;;;;;;;;;9.10;99.90;;;;;;5002605;28;19959;-77
2021/12/17 13:41:09;;;;;;;;;;;9.10;99.90;;;;;;5020599;28;19913;-77
2021/12/17 13:43:38;;;;;;;;;;;9.10;99.90;;;;;;5020084;28;20340;-77
2021/12/17 13:46:05;;;;;;;;;;;9.10;99.90;;;;;;5019808;28;19913;-77
2021/12/17 13:48:32;;;;;;;;;;;9.10;99.90;;;;;;5020808;28;19933;-77
2021/12/17 13:50:57;;;;;;;;;;;9.10;99.90;;;;;;5020097;28;19956;-77
2021/12/17 13:53:23;;;;;;;;;;;9.00;99.90;;;;;;5019531;28;19913;-75
2021/12/17 13:55:50;;;;;;;;;;;9.00;99.90;;;;;;5015026;28;19909;-76
2021/12/17 13:58:25;;;;;;;;;;;9.00;99.90;;;;;;5030189;28;19914;-76
2021/12/17 14:00:52;;;;;;;;;;;9.00;99.90;;;;;;5022943;28;20377;-77
2021/12/17 14:03:20;;;;;;;;;;;9.00;99.90;;;;;;5020103;28;20255;-81
2021/12/17 14:05:58;;;;;;;;;;;9.00;99.90;;;;;;5016254;28;19976;-82
2021/12/17 14:08:24;;;;;;;;;;;9.00;99.90;;;;;;5001109;28;19909;-78
2021/12/17 14:10:50;;;;;;;;;;;8.90;99.90;;;;;;4995277;28;19916;-81
2021/12/17 14:13:24;;;;;;;;;;;8.90;99.90;;;;;;4998459;28;19909;-82
2021/12/17 14:15:50;;;;;;;;;;;9.00;99.90;;;;;;4993591;28;19920;-80
2021/12/17 14:18:17;;;;;;;;;;;8.90;99.90;;;;;;5011560;28;19910;-80
2021/12/17 14:20:44;;;;;;;;;;;8.90;99.90;;;;;;5013856;28;19919;-80
2021/12/17 14:23:21;;;;;;;;;;;8.90;99.90;;;;;;5016740;28;19933;-81
2021/12/17 14:25:48;;;;;;;;;;;8.80;99.90;;;;;;5012115;28;19910;-81
2021/12/17 14:28:15;;;;;;;;;;;8.80;99.90;;;;;;4998028;28;19926;-81
2021/12/17 14:30:46;;;;;;;;;;;8.70;99.90;;;;;;5028853;28;19948;-81
2021/12/17 14:33:17;;;;;;;;;;;8.70;99.90;;;;;;4998482;28;19949;-81
2021/12/17 14:35:42;;;;;;;;;;;8.70;99.90;;;;;;5002608;28;19909;-80
2021/12/17 14:38:08;;;;;;;;;;;8.70;99.90;;;;;;5000246;28;19916;-81
2021/12/17 14:40:42;;;;;;;;;;;8.70;99.90;;;;;;5010941;28;19910;-80
2021/12/17 14:43:24;;;;;;;;;;;8.70;99.90;;;;;;4990411;28;19924;-80
2021/12/17 14:45:51;;;;;;;;;;;8.70;99.90;;;;;;5014542;28;19977;-81
2021/12/17 14:48:28;;;;;;;;;;;8.70;99.90;;;;;;5018345;28;20251;-80
2021/12/17 15:04:37;;;;;;;;;;;8.70;99.90;;;;;;5010968;28;20420;-82
2021/12/17 15:07:02;;;;;;;;;;;8.70;99.90;;;;;;5004724;28;19925;-81
2021/12/17 15:09:31;;;;;;;;;;;8.70;99.90;;;;;;5017237;28;19920;-79
2021/12/17 15:11:59;;;;;;;;;;;8.70;99.90;;;;;;5008566;28;19914;-80
2021/12/17 15:14:25;;;;;;;;;;;8.70;99.90;;;;;;5014838;28;19913;-82
2021/12/17 15:16:51;;;;;;;;;;;8.70;99.90;;;;;;5018536;28;19909;-81
2021/12/17 15:19:16;;;;;;;;;;;8.70;99.90;;;;;;5015692;28;20369;-81
2021/12/17 15:21:42;;;;;;;;;;;8.70;99.90;;;;;;5027831;28;20380;-81
2021/12/17 15:24:09;;;;;;;;;;;8.60;99.90;;;;;;5016768;28;19964;-80
2021/12/17 15:26:35;;;;;;;;;;;8.60;99.90;;;;;;5034035;28;19956;-81
2021/12/17 15:29:00;;;;;;;;;;;8.50;99.90;;;;;;5002058;28;19918;-80
2021/12/17 15:31:26;;;;;;;;;;;8.50;99.90;;;;;;4996437;28;19945;-81
2021/12/17 15:33:51;;;;;;;;;;;8.40;99.90;;;;;;5018146;28;19910;-82
2021/12/17 15:36:17;;;;;;;;;;;8.40;99.90;;;;;;5018364;28;20373;-82
2021/12/17 15:38:43;;;;;;;;;;;8.40;99.90;;;;;;5016908;28;19917;-81
2021/12/17 15:41:09;;;;;;;;;;;8.40;99.90;;;;;;5018859;28;19909;-80
2021/12/17 15:43:35;;;;;;;;;;;8.40;99.90;;;;;;5019128;28;19924;-79
2021/12/17 15:46:01;;;;;;;;;;;8.40;99.90;;;;;;5027547;28;19913;-78
2021/12/17 15:48:26;;;;;;;;;;;8.40;99.90;;;;;;5030668;28;19909;-79
2021/12/17 15:50:52;;;;;;;;;;;8.50;99.90;;;;;;5015289;28;20267;-76
2021/12/17 15:53:18;;;;;;;;;;;8.50;99.90;;;;;;5013431;28;19918;-79
2021/12/17 15:55:44;;;;;;;;;;;8.40;99.90;;;;;;5021623;28;19913;-78
2021/12/17 15:58:10;;;;;;;;;;;8.40;99.90;;;;;;5014206;28;19913;-78
2021/12/17 16:00:36;;;;;;;;;;;8.30;99.90;;;;;;5037589;28;19909;-78
2021/12/17 16:03:03;;;;;;;;;;;8.30;99.90;;;;;;5028313;28;19914;-79
2021/12/17 16:05:30;;;;;;;;;;;8.20;99.90;;;;;;5010254;28;19909;-79
2021/12/17 16:07:56;;;;;;;;;;;8.20;99.90;;;;;;5025192;28;19938;-79
2021/12/17 16:21:20;;;;;;;;;;;8.00;99.90;;;;;;4998395;28;20013;-79
2021/12/17 16:23:47;;;;;;;;;;;7.90;99.90;;;;;;5016588;28;19917;-79
2021/12/17 16:26:14;;;;;;;;;;;7.90;99.90;;;;;;4998507;28;20389;-79
2021/12/17 16:28:40;;;;;;;;;;;7.90;99.90;;;;;;5016531;28;19917;-79
2021/12/17 16:31:10;;;;;;;;;;;7.90;99.90;;;;;;5017899;28;19909;-78
2021/12/17 16:33:36;;;;;;;;;;;7.90;99.90;;;;;;5016915;28;19914;-79
2021/12/17 16:36:03;;;;;;;;;;;7.90;99.90;;;;;;5016975;28;19909;-79
2021/12/17 16:38:31;;;;;;;;;;;7.90;99.90;;;;;;5015320;28;19909;-79
2021/12/17 16:40:58;;;;;;;;;;;7.80;99.90;;;;;;4999299;28;20294;-78
2021/12/17 16:43:24;;;;;;;;;;;7.80;99.90;;;;;;5006752;28;19967;-77
2021/12/17 16:46:23;;;;;;;;;;;7.80;99.90;;;;;;5017583;28;20000;-77
2021/12/17 16:48:49;;;;;;;;;;;7.80;99.90;;;;;;5017508;28;19910;-80
2021/12/17 16:51:16;;;;;;;;;;;7.70;99.90;;;;;;4997624;28;20381;-79
2021/12/17 16:53:49;;;;;;;;;;;7.60;99.90;;;;;;5004921;28;20004;-79
2021/12/17 16:56:16;;;;;;;;;;;7.60;99.90;;;;;;5016547;28;19910;-80
2021/12/17 16:58:41;;;;;;;;;;;7.60;99.90;;;;;;5017484;28;19909;-80
2021/12/17 17:01:07;;;;;;;;;;;7.60;99.90;;;;;;4999718;28;19965;-80
2021/12/17 17:03:33;;;;;;;;;;;7.70;99.90;;;;;;5017337;28;20304;-80
2021/12/17 17:05:58;;;;;;;;;;;7.60;99.90;;;;;;5016903;28;19963;-80
2021/12/17 17:08:25;;;;;;;;;;;7.60;99.90;;;;;;5017209;28;19961;-80
2021/12/17 17:10:53;;;;;;;;;;;7.60;99.90;;;;;;5017127;28;19916;-86
2021/12/17 17:13:20;;;;;;;;;;;7.50;99.90;;;;;;5017357;28;20254;-80
2021/12/17 17:15:47;;;;;;;;;;;7.50;99.90;;;;;;4999336;28;19910;-79
2021/12/17 17:18:13;;;;;;;;;;;7.50;99.90;;;;;;5017244;28;19909;-80
2021/12/17 17:20:39;;;;;;;;;;;7.50;99.90;;;;;;5019076;28;19917;-80
2021/12/17 17:23:05;;;;;;;;;;;7.50;99.90;;;;;;5022422;28;20369;-80
2021/12/17 17:25:31;;;;;;;;;;;7.50;99.90;;;;;;5040606;28;20369;-80
2021/12/17 17:27:56;;;;;;;;;;;7.50;99.90;;;;;;5034286;28;19924;-80
2021/12/17 17:30:23;;;;;;;;;;;7.50;99.90;;;;;;4998168;28;20412;-80
2021/12/17 17:32:48;;;;;;;;;;;7.40;99.90;;;;;;5007501;28;19948;-81
2021/12/17 17:35:14;;;;;;;;;;;7.40;99.90;;;;;;5020425;28;19918;-80
2021/12/17 17:37:40;;;;;;;;;;;7.40;99.90;;;;;;5019922;28;19909;-78
2021/12/17 17:40:07;;;;;;;;;;;7.40;99.90;;;;;;5019069;28;19913;-78
2021/12/17 17:42:33;;;;;;;;;;;7.30;99.90;;;;;;5026848;28;19926;-78
2021/12/17 17:44:58;;;;;;;;;;;7.30;99.90;;;;;;5017265;28;19925;-78
2021/12/17 17:47:24;;;;;;;;;;;7.30;99.90;;;;;;5040159;28;19909;-78
2021/12/17 17:49:53;;;;;;;;;;;7.20;99.90;;;;;;5032822;28;19909;-78